Time;durP1;ratioP1;P1;durP2;ratioP2;P2;SDS_P1;SDS_P2;PMS_P1;PMS_P2;Temp;Humidity;BMP_temperature;BMP_pressure;BME280_temperature;BME280_humidity;BME280_pressure;Samples;Min_cycle;Max_cycle;Signal;HPM_P1;HPM_P2
2022/04/12 00:01:11;;;;;;;10.27;5.03;;;;;;;6.55;82.29;96031.66;5010009;28;20086;-79
2022/04/12 00:03:37;;;;;;;9.63;4.90;;;;;;;6.57;82.09;96028.88;5015243;28;20120;-79
2022/04/12 00:06:03;;;;;;;9.70;5.40;;;;;;;6.63;81.66;96028.31;5032430;28;20397;-78
2022/04/12 00:08:28;;;;;;;11.37;5.47;;;;;;;6.52;82.62;96029.31;5028110;28;20846;-78
2022/04/12 00:10:54;;;;;;;13.33;5.73;;;;;;;6.53;82.59;96019.69;5033096;28;20021;-78
2022/04/12 00:13:22;;;;;;;10.63;5.80;;;;;;;6.55;82.67;96017.75;5032505;28;20402;-79
2022/04/12 00:15:48;;;;;;;11.53;6.10;;;;;;;6.47;83.38;96028.06;5024176;28;20029;-80
2022/04/12 00:20:58;;;;;;;9.13;4.73;;;;;;;6.52;82.74;96015.44;5025388;28;20032;-79
2022/04/12 00:23:24;;;;;;;12.90;5.17;;;;;;;6.48;83.34;96017.50;5032201;28;20024;-79
2022/04/12 00:25:53;;;;;;;9.67;5.17;;;;;;;6.44;83.58;96010.91;5015816;28;20485;-79
2022/04/12 00:28:19;;;;;;;9.77;5.43;;;;;;;6.40;84.24;96014.72;5013715;28;20053;-78
2022/04/12 00:30:46;;;;;;;12.23;5.10;;;;;;;6.40;84.19;96013.91;5033372;28;20071;-79
2022/04/12 00:33:12;;;;;;;10.70;5.50;;;;;;;6.41;84.09;96008.56;5027085;28;20032;-79
2022/04/12 00:35:38;;;;;;;11.50;5.07;;;;;;;6.38;84.07;96006.22;5017262;28;20506;-79
2022/04/12 00:38:17;;;;;;;13.20;5.47;;;;;;;6.43;83.72;96011.03;5015167;28;20099;-78
2022/04/12 00:40:45;;;;;;;9.33;5.23;;;;;;;6.37;84.17;96012.41;5012849;28;20132;-79
2022/04/12 00:43:11;;;;;;;12.23;5.37;;;;;;;6.34;84.21;96010.09;5049156;28;20541;-78
2022/04/12 00:45:37;;;;;;;10.17;5.40;;;;;;;6.31;84.77;96008.56;5012043;28;20035;-78
2022/04/12 00:48:02;;;;;;;11.00;5.07;;;;;;;6.34;84.72;96003.06;5032650;28;20517;-79
2022/04/12 00:50:28;;;;;;;8.87;5.20;;;;;;;6.31;85.14;96005.16;5015373;28;20039;-79
2022/04/12 00:52:56;;;;;;;10.27;4.90;;;;;;;6.33;84.95;96006.63;5014584;28;20024;-79
2022/04/12 00:55:22;;;;;;;10.70;5.10;;;;;;;6.28;85.06;96010.63;5015155;28;20102;-78
2022/04/12 00:57:49;;;;;;;11.20;5.10;;;;;;;6.27;85.58;96006.34;5014221;28;20135;-80
2022/04/12 01:00:18;;;;;;;9.53;4.63;;;;;;;6.20;86.07;96000.03;5020482;28;20114;-79
2022/04/12 01:02:44;;;;;;;10.73;5.23;;;;;;;6.18;86.63;96009.81;5012069;28;20020;-79
2022/04/12 01:05:10;;;;;;;11.13;5.63;;;;;;;6.16;86.45;95999.50;5015090;28;20404;-78
2022/04/12 01:07:37;;;;;;;10.70;5.83;;;;;;;6.18;86.59;95999.38;5023745;28;20048;-78
2022/04/12 01:10:04;;;;;;;11.53;5.47;;;;;;;6.14;86.75;95998.81;5027370;28;20379;-78
2022/04/12 01:12:38;;;;;;;12.23;5.60;;;;;;;6.16;86.81;95991.66;5012787;28;20028;-79
2022/04/12 01:15:17;;;;;;;;;;;;;;;6.10;87.22;95992.22;5031503;28;20456;-79
2022/04/12 01:17:44;;;;;;;11.30;5.40;;;;;;;6.04;87.96;95988.38;5030080;28;19913;-79
2022/04/12 01:20:12;;;;;;;12.00;4.90;;;;;;;6.07;87.98;95992.47;5029035;28;20346;-79
2022/04/12 01:22:57;;;;;;;11.27;5.50;;;;;;;6.05;87.88;95995.25;5012614;28;20106;-78
2022/04/12 01:25:23;;;;;;;11.00;5.60;;;;;;;6.00;88.71;95988.78;5015216;28;20649;-79
2022/04/12 01:27:49;;;;;;;10.80;6.07;;;;;;;6.03;88.23;95997.16;5046738;28;20033;-79
2022/04/12 01:30:15;;;;;;;9.73;5.83;;;;;;;6.08;87.53;96004.59;5031311;28;20040;-79
2022/04/12 01:32:41;;;;;;;11.17;5.23;;;;;;;6.07;88.28;95993.34;5028414;28;20033;-79
2022/04/12 01:35:07;;;;;;;11.83;6.20;;;;;;;6.07;87.86;96002.91;5031263;28;20029;-79
2022/04/12 01:37:33;;;;;;;11.73;5.17;;;;;;;6.05;88.19;96002.25;5008113;28;20033;-79
2022/04/12 01:39:59;;;;;;;10.60;6.03;;;;;;;5.99;88.63;96000.19;5031515;28;20048;-79
2022/04/12 01:42:25;;;;;;;12.37;5.80;;;;;;;5.99;89.09;95994.97;5011312;28;20048;-79
2022/04/12 01:44:50;;;;;;;10.90;5.30;;;;;;;6.00;88.96;95986.16;5030484;28;20061;-79
2022/04/12 01:47:17;;;;;;;12.20;6.10;;;;;;;5.91;89.82;95980.78;5011703;28;20498;-80
2022/04/12 01:49:44;;;;;;;11.27;5.37;;;;;;;5.90;89.54;95976.53;5016754;28;20021;-79
2022/04/12 01:52:10;;;;;;;11.17;5.80;;;;;;;5.93;89.46;95979.84;5027497;28;20406;-80
2022/04/12 01:54:36;;;;;;;11.87;6.33;;;;;;;5.86;89.92;95982.97;5029827;28;20033;-78
2022/04/12 01:57:03;;;;;;;11.47;5.70;;;;;;;5.91;89.75;95991.22;5017878;28;20401;-80
2022/04/12 01:59:29;;;;;;;11.80;6.43;;;;;;;5.99;88.81;95994.97;5031451;28;20505;-80
2022/04/12 02:01:54;;;;;;;11.37;6.30;;;;;;;5.96;88.76;96000.44;5015110;28;20021;-80
2022/04/12 02:04:20;;;;;;;12.53;6.43;;;;;;;5.97;89.00;95989.03;5015878;28;20067;-79
2022/04/12 02:06:46;;;;;;;10.43;6.20;;;;;;;5.94;89.24;95992.78;5030582;28;20032;-78
2022/04/12 02:09:11;;;;;;;10.80;5.60;;;;;;;5.90;89.50;95992.19;5005197;28;20036;-79
2022/04/12 02:11:37;;;;;;;11.37;5.30;;;;;;;5.93;89.38;95992.88;5017028;28;20032;-80
2022/04/12 02:14:03;;;;;;;11.27;5.77;;;;;;;5.85;90.34;96002.19;5032502;28;20432;-79
2022/04/12 02:16:28;;;;;;;11.80;5.20;;;;;;;5.88;90.03;95996.72;5031155;28;20555;-80
2022/04/12 02:18:54;;;;;;;11.63;5.50;;;;;;;5.89;89.75;95995.75;5029920;28;20032;-79
2022/04/12 02:21:20;;;;;;;10.37;5.50;;;;;;;5.87;90.07;96002.06;5032073;28;20044;-80
2022/04/12 02:23:45;;;;;;;11.07;6.33;;;;;;;5.90;89.75;95989.59;5009762;28;20021;-80
2022/04/12 02:26:12;;;;;;;12.17;5.73;;;;;;;5.89;89.68;95995.75;5033448;28;20723;-80
2022/04/12 02:28:37;;;;;;;11.80;5.67;;;;;;;5.93;89.80;95985.06;5010820;28;20041;-80
2022/04/12 02:31:03;;;;;;;10.87;5.40;;;;;;;5.95;89.37;95983.97;5011115;28;20123;-79
2022/04/12 02:33:29;;;;;;;10.53;5.33;;;;;;;5.87;89.45;95987.25;5030281;28;20112;-81
2022/04/12 02:35:55;;;;;;;11.50;5.57;;;;;;;5.90;89.72;95983.50;5014120;28;20029;-78
2022/04/12 02:38:21;;;;;;;11.63;5.90;;;;;;;5.87;89.84;95981.19;5050621;28;21875;-79
2022/04/12 02:40:46;;;;;;;8.90;5.20;;;;;;;5.91;89.23;95978.16;5009625;28;20029;-80
2022/04/12 02:43:12;;;;;;;9.57;5.40;;;;;;;5.94;88.96;95973.69;5048276;28;20497;-79
2022/04/12 02:45:37;;;;;;;10.77;5.97;;;;;;;5.87;89.79;95978.59;5016809;28;20036;-79
2022/04/12 02:48:03;;;;;;;8.70;5.03;;;;;;;5.82;90.51;95973.75;5018931;28;20067;-79
2022/04/12 02:50:29;;;;;;;12.50;6.07;;;;;;;5.83;90.53;95970.19;5041090;28;20531;-79
2022/04/12 02:52:55;;;;;;;10.60;5.43;;;;;;;5.76;91.13;95969.09;5036901;28;20040;-80
2022/04/12 02:55:21;;;;;;;10.23;5.30;;;;;;;5.76;91.21;95971.69;5037452;28;20044;-79
2022/04/12 02:57:46;;;;;;;12.07;6.40;;;;;;;5.49;94.18;95972.34;5052599;28;20028;-80
2022/04/12 03:00:12;;;;;;;9.00;5.47;;;;;;;5.29;96.06;95971.47;5048556;28;20063;-80
2022/04/12 03:02:38;;;;;;;12.13;5.70;;;;;;;5.17;97.78;95975.97;5032241;28;20052;-79
2022/04/12 03:05:04;;;;;;;10.53;5.23;;;;;;;5.07;98.92;95966.47;5035157;28;20040;-80
2022/04/12 03:07:30;;;;;;;10.73;5.60;;;;;;;5.06;99.11;95975.22;5018581;28;20020;-80
2022/04/12 03:09:55;;;;;;;9.73;5.63;;;;;;;5.05;99.88;95974.41;5016891;28;20118;-79
2022/04/12 03:12:21;;;;;;;9.93;5.57;;;;;;;5.04;99.54;95966.75;5033229;28;20029;-80
2022/04/12 03:14:47;;;;;;;10.37;5.60;;;;;;;5.03;99.51;95976.34;5035682;28;20482;-79
2022/04/12 03:17:12;;;;;;;9.07;5.27;;;;;;;5.03;99.97;95965.91;5017715;28;20033;-79
2022/04/12 03:19:38;;;;;;;10.97;5.17;;;;;;;4.91;100.00;95978.19;5028418;28;20037;-80
2022/04/12 03:22:04;;;;;;;8.77;5.43;;;;;;;4.91;100.00;95975.59;5033784;28;20021;-79
2022/04/12 03:24:31;;;;;;;10.97;5.40;;;;;;;4.85;100.00;95968.28;5027497;28;20033;-79
2022/04/12 03:26:57;;;;;;;11.93;5.53;;;;;;;4.83;100.00;95970.22;5014382;28;20030;-79
2022/04/12 03:29:23;;;;;;;9.27;5.53;;;;;;;4.78;100.00;95977.59;5028855;28;20060;-80
2022/04/12 03:31:49;;;;;;;9.03;5.63;;;;;;;4.74;100.00;95978.81;5033771;28;20069;-79
2022/04/12 03:34:14;;;;;;;8.33;5.27;;;;;;;4.73;100.00;95984.97;5016603;28;20033;-79
2022/04/12 03:36:40;;;;;;;10.63;5.03;;;;;;;4.67;100.00;95980.28;5018482;28;20493;-80
2022/04/12 03:39:05;;;;;;;11.07;5.73;;;;;;;4.62;100.00;95977.22;5027547;28;20025;-79
2022/04/12 03:41:31;;;;;;;11.10;6.07;;;;;;;4.68;100.00;95974.09;5014366;28;20029;-81
2022/04/12 03:43:57;;;;;;;9.97;5.60;;;;;;;4.64;100.00;95972.72;5015032;28;20120;-80
2022/04/12 03:46:22;;;;;;;8.33;5.00;;;;;;;4.60;100.00;95974.75;5022728;28;20100;-80
2022/04/12 03:48:48;;;;;;;10.63;5.40;;;;;;;4.66;100.00;95976.84;5032792;28;20048;-80
2022/04/12 03:51:14;;;;;;;9.17;5.47;;;;;;;4.60;100.00;95974.75;5027543;28;20028;-79
2022/04/12 03:53:40;;;;;;;10.53;5.80;;;;;;;4.66;100.00;95971.66;5015905;28;20037;-79
2022/04/12 03:56:07;;;;;;;12.87;6.10;;;;;;;4.56;100.00;95973.38;5013023;28;20886;-79
2022/04/12 03:58:39;;;;;;;11.53;5.53;;;;;;;4.47;100.00;95972.34;5030405;28;20436;-78
2022/04/12 04:01:05;;;;;;;10.17;5.93;;;;;;;4.46;100.00;95970.72;5031823;28;20056;-80
2022/04/12 04:03:31;;;;;;;9.63;6.07;;;;;;;4.45;100.00;95976.84;5032676;28;20568;-80
2022/04/12 04:05:56;;;;;;;9.93;6.43;;;;;;;4.42;100.00;95978.88;5019645;28;20067;-80
2022/04/12 04:08:28;;;;;;;11.50;6.97;;;;;;;4.41;100.00;95972.03;5026663;28;20037;-79
2022/04/12 04:10:53;;;;;;;14.23;6.07;;;;;;;4.48;100.00;95978.38;5033408;28;20036;-79
2022/04/12 04:13:19;;;;;;;10.73;6.00;;;;;;;4.43;100.00;95976.19;5013873;28;20060;-78
2022/04/12 04:15:46;;;;;;;11.40;6.03;;;;;;;4.34;100.00;95984.75;5022759;28;20021;-79
2022/04/12 04:18:13;;;;;;;10.83;5.37;;;;;;;4.34;100.00;95987.34;5033001;28;20131;-79
2022/04/12 04:20:39;;;;;;;18.17;6.70;;;;;;;4.28;100.00;95982.63;5017478;28;20037;-79
2022/04/12 04:23:05;;;;;;;10.93;6.00;;;;;;;4.28;100.00;95982.63;5033894;28;20610;-80
2022/04/12 04:25:31;;;;;;;12.10;5.90;;;;;;;4.31;100.00;95977.19;5018871;28;20028;-79
2022/04/12 04:27:57;;;;;;;14.67;6.80;;;;;;;4.28;100.00;95982.63;5017222;28;20459;-79
2022/04/12 04:30:23;;;;;;;11.00;6.30;;;;;;;4.31;100.00;95978.97;5026973;28;20025;-80
2022/04/12 04:32:50;;;;;;;11.03;6.67;;;;;;;4.40;100.00;95966.00;5013062;28;20041;-78
2022/04/12 04:35:16;;;;;;;12.43;6.37;;;;;;;4.25;100.00;95972.47;5033050;28;20104;-79
2022/04/12 04:37:47;;;;;;;13.70;6.00;;;;;;;4.26;100.00;95974.16;5013597;28;20183;-79
2022/04/12 04:40:18;;;;;;;9.97;6.33;;;;;;;4.33;100.00;95970.09;5012813;28;20033;-79
2022/04/12 04:42:45;;;;;;;14.03;6.80;;;;;;;4.30;100.00;95972.13;5025896;28;20029;-79
2022/04/12 04:45:14;;;;;;;9.90;6.00;;;;;;;4.31;100.00;95969.38;5007240;28;20021;-79
2022/04/12 04:47:52;;;;;;;12.37;6.90;;;;;;;4.31;100.00;95971.97;5018079;28;20029;-79
2022/04/12 04:50:23;;;;;;;18.43;7.37;;;;;;;4.31;100.00;95976.34;5034568;28;20041;-79
2022/04/12 04:52:49;;;;;;;10.13;6.10;;;;;;;4.32;100.00;95975.41;5031819;28;20120;-80
2022/04/12 04:55:16;;;;;;;9.73;5.83;;;;;;;4.31;100.00;95976.34;5015763;28;20028;-80
2022/04/12 04:57:43;;;;;;;11.83;6.40;;;;;;;4.32;100.00;95978.81;5035785;28;20474;-80
2022/04/12 05:00:17;;;;;;;12.47;6.80;;;;;;;4.32;100.00;95980.59;5016357;28;20037;-82
2022/04/12 05:02:48;;;;;;;12.67;6.57;;;;;;;4.31;100.00;95984.16;5012566;28;20032;-80
2022/04/12 05:05:15;;;;;;;11.63;5.73;;;;;;;4.23;100.00;95977.00;5049070;28;20115;-80
2022/04/12 05:07:45;;;;;;;12.50;6.53;;;;;;;4.31;100.00;95978.97;5032174;28;20640;-79
2022/04/12 05:10:19;;;;;;;12.43;6.70;;;;;;;4.47;100.00;95981.94;5031907;28;20032;-80
2022/04/12 05:12:45;;;;;;;11.43;6.93;;;;;;;4.55;100.00;95984.72;5027325;28;20064;-79
2022/04/12 05:15:11;;;;;;;11.23;6.73;;;;;;;4.62;100.00;95977.22;5033193;28;20537;-80
2022/04/12 05:17:37;;;;;;;13.93;6.53;;;;;;;4.70;100.00;95983.44;5015935;28;20043;-80
2022/04/12 05:20:06;;;;;;;11.10;5.67;;;;;;;4.79;100.00;95984.44;5029565;28;20041;-81
2022/04/12 05:22:31;;;;;;;11.47;6.40;;;;;;;4.83;100.00;95980.66;5010879;28;20025;-79
2022/04/12 05:24:57;;;;;;;10.83;5.97;;;;;;;4.90;100.00;95984.38;5011736;28;20040;-81
2022/04/12 05:27:23;;;;;;;13.10;6.50;;;;;;;4.96;100.00;95978.66;5031795;28;20572;-80
2022/04/12 05:29:49;;;;;;;14.20;6.30;;;;;;;5.08;100.00;95973.34;5031285;28;20037;-80
2022/04/12 05:32:15;;;;;;;12.73;6.17;;;;;;;5.09;100.00;95983.59;5015890;28;20054;-79
2022/04/12 05:34:45;;;;;;;10.37;6.10;;;;;;;5.24;100.00;95988.47;5030499;28;20123;-81
2022/04/12 05:37:11;;;;;;;11.97;6.37;;;;;;;5.58;98.93;95983.75;5015980;28;20039;-81
2022/04/12 05:39:36;;;;;;;10.57;6.43;;;;;;;5.51;98.60;95980.03;5031924;28;20029;-80
2022/04/12 05:42:02;;;;;;;11.10;6.57;;;;;;;5.51;98.33;95982.66;5031062;28;20073;-81
2022/04/12 05:44:32;;;;;;;11.83;6.43;;;;;;;5.39;99.52;95990.56;5013036;28;20064;-81
2022/04/12 05:46:59;;;;;;;9.30;5.23;;;;;;;5.54;98.62;95992.81;5020470;28;20029;-81
2022/04/12 05:49:24;;;;;;;12.97;6.50;;;;;;;5.74;99.04;95991.91;5032401;28;20033;-80
2022/04/12 05:51:50;;;;;;;11.27;6.60;;;;;;;6.08;96.83;95981.91;5056952;28;20021;-80
2022/04/12 05:54:16;;;;;;;11.60;6.50;;;;;;;5.96;95.18;95982.19;5039918;28;20037;-80
2022/04/12 05:56:42;;;;;;;10.00;5.50;;;;;;;6.09;95.64;95975.72;5034277;28;20032;-81
2022/04/12 05:59:08;;;;;;;11.90;6.93;;;;;;;6.26;94.68;95978.59;5030027;28;20109;-81
2022/04/12 06:01:33;;;;;;;12.87;7.37;;;;;;;6.50;91.76;95978.16;5013035;28;20029;-80
2022/04/12 06:03:59;;;;;;;10.77;6.20;;;;;;;6.36;92.79;95976.81;5030271;28;20504;-81
2022/04/12 06:06:25;;;;;;;11.60;5.83;;;;;;;6.50;91.76;95975.53;5016152;28;20044;-81
2022/04/12 06:08:51;;;;;;;14.53;7.00;;;;;;;6.78;89.81;95972.06;5025373;28;20062;-80
2022/04/12 06:11:16;;;;;;;10.13;6.40;;;;;;;6.67;89.61;95974.81;5015000;28;20107;-81
2022/04/12 06:13:42;;;;;;;10.10;5.67;;;;;;;7.14;87.63;95968.75;5030600;28;20057;-81
2022/04/12 06:16:08;;;;;;;12.87;5.90;;;;;;;7.67;84.42;95963.63;5018033;28;20029;-79
2022/04/12 06:18:33;;;;;;;10.97;6.07;;;;;;;7.93;80.96;95973.38;5014832;28;20120;-81
2022/04/12 06:20:59;;;;;;;10.60;5.73;;;;;;;8.21;79.89;95972.31;5013997;28;20041;-82
2022/04/12 06:23:25;;;;;;;13.80;5.77;;;;;;;8.19;79.86;95971.66;5024649;28;20029;-80
2022/04/12 06:25:50;;;;;;;9.80;5.63;;;;;;;8.09;81.72;95968.31;5018775;28;20057;-81
2022/04/12 06:28:16;;;;;;;10.90;6.50;;;;;;;8.34;80.20;95971.94;5021813;28;20044;-81
2022/04/12 06:30:43;;;;;;;10.77;5.73;;;;;;;8.29;80.78;95968.16;5030646;28;20478;-81
2022/04/12 06:33:09;;;;;;;9.57;6.37;;;;;;;8.56;77.40;95970.69;5034064;28;20128;-82
2022/04/12 06:35:35;;;;;;;10.10;5.63;;;;;;;9.10;73.34;95966.06;5037217;28;20064;-80
2022/04/12 06:38:02;;;;;;;7.97;4.87;;;;;;;9.56;72.53;95971.03;5019489;28;20068;-81
2022/04/12 06:40:28;;;;;;;9.43;5.10;;;;;;;9.50;71.49;95971.66;5033001;28;20064;-81
2022/04/12 06:42:54;;;;;;;9.40;5.47;;;;;;;9.12;71.35;95977.25;5027628;28;20060;-81
2022/04/12 06:45:22;;;;;;;8.80;4.57;;;;;;;9.37;68.77;95986.03;5026227;28;20057;-81
2022/04/12 06:47:53;;;;;;;10.10;5.40;;;;;;;9.55;68.64;95988.56;5042190;28;20021;-82
2022/04/12 06:50:19;;;;;;;10.80;5.17;;;;;;;9.76;67.48;95993.41;5009663;28;20273;-81
2022/04/12 06:52:45;;;;;;;10.27;4.47;;;;;;;9.36;69.03;95988.84;5014437;28;20116;-80
2022/04/12 06:55:11;;;;;;;7.80;5.00;;;;;;;9.12;69.45;95985.13;5025167;28;20090;-81
2022/04/12 06:57:37;;;;;;;8.80;5.10;;;;;;;9.71;67.70;95981.72;5025739;28;20036;-81
2022/04/12 07:00:05;;;;;;;8.13;4.50;;;;;;;10.05;66.59;95982.44;5033633;28;20033;-81
2022/04/12 07:02:31;;;;;;;8.47;4.77;;;;;;;10.44;66.30;95978.41;5046391;28;20455;-81
2022/04/12 07:04:57;;;;;;;7.03;4.43;;;;;;;10.03;65.70;95981.00;5025067;28;20029;-82
2022/04/12 07:07:23;;;;;;;8.97;4.90;;;;;;;10.87;65.01;95976.41;5018893;28;20513;-82
2022/04/12 07:09:49;;;;;;;11.57;5.43;;;;;;;10.99;64.59;95970.63;5023963;28;20040;-82
2022/04/12 07:12:15;;;;;;;8.30;4.67;;;;;;;10.84;63.53;95972.31;5007866;28;20397;-82
2022/04/12 07:14:40;;;;;;;8.90;4.80;;;;;;;10.92;61.95;95971.47;5020973;28;21163;-81
2022/04/12 07:17:06;;;;;;;8.33;4.23;;;;;;;11.09;61.21;95976.50;5021120;28;20116;-81
2022/04/12 07:19:32;;;;;;;9.30;4.80;;;;;;;11.00;61.40;95982.81;5025153;28;20090;-81
2022/04/12 07:21:57;;;;;;;7.67;4.10;;;;;;;11.44;61.29;95979.69;5020970;28;20083;-83
2022/04/12 07:24:23;;;;;;;7.47;3.90;;;;;;;11.68;59.51;95968.22;5019391;28;20059;-82
2022/04/12 07:26:49;;;;;;;9.27;4.70;;;;;;;12.02;57.68;95974.97;5010573;28;20041;-80
2022/04/12 07:29:15;;;;;;;7.50;4.27;;;;;;;12.15;57.77;95977.06;5017968;28;20036;-80
2022/04/12 07:31:42;;;;;;;6.57;3.70;;;;;;;11.67;59.45;95976.28;5003255;28;20027;-81
2022/04/12 07:34:09;;;;;;;6.93;4.07;;;;;;;12.09;56.10;95972.47;5007464;28;20037;-81
2022/04/12 07:36:39;;;;;;;7.83;4.40;;;;;;;12.29;57.38;95976.28;5019135;28;20033;-82
2022/04/12 07:39:10;;;;;;;6.80;3.70;;;;;;;12.42;55.88;95976.50;5035656;28;20053;-83
2022/04/12 07:41:37;;;;;;;6.30;3.47;;;;;;;13.01;54.22;95975.00;5015878;28;20030;-83
2022/04/12 07:44:03;;;;;;;7.07;3.77;;;;;;;13.23;53.25;95968.00;5013173;28;20044;-83
2022/04/12 07:46:29;;;;;;;7.63;4.07;;;;;;;13.50;53.18;95963.94;5013900;28;20401;-81
2022/04/12 07:48:55;;;;;;;6.77;3.73;;;;;;;13.28;52.92;95961.22;5016934;28;20072;-80
2022/04/12 07:51:21;;;;;;;6.37;3.67;;;;;;;13.72;52.41;95962.19;5015127;28;20116;-81
2022/04/12 07:53:46;;;;;;;6.40;3.77;;;;;;;13.10;52.81;95966.00;5000872;28;20708;-83
2022/04/12 07:56:12;;;;;;;7.60;3.43;;;;;;;12.97;53.86;95943.69;5015009;28;20654;-82
2022/04/12 07:58:37;;;;;;;7.40;4.13;;;;;;;13.06;53.38;95946.25;5010861;28;20041;-81
2022/04/12 08:01:03;;;;;;;6.97;3.90;;;;;;;12.86;53.85;95943.31;5031420;28;20086;-82
2022/04/12 08:03:29;;;;;;;6.00;3.40;;;;;;;13.17;54.02;95943.16;4999544;28;20040;-82
2022/04/12 08:05:56;;;;;;;7.00;3.40;;;;;;;13.25;52.74;95953.66;5015457;28;20061;-81
2022/04/12 08:08:23;;;;;;;9.20;3.70;;;;;;;13.30;51.54;95943.34;5017727;28;20071;-81
2022/04/12 08:10:48;;;;;;;8.13;3.83;;;;;;;13.89;51.10;95948.53;5010160;28;20045;-81
2022/04/12 08:13:14;;;;;;;5.77;3.47;;;;;;;14.03;50.80;95944.22;5020282;28;20106;-81
2022/04/12 08:15:40;;;;;;;6.90;3.40;;;;;;;14.61;49.74;95938.88;5003916;28;20037;-81
2022/04/12 08:18:06;;;;;;;6.43;3.30;;;;;;;14.51;49.47;95946.31;5042845;28;20045;-81
2022/04/12 08:20:32;;;;;;;7.40;2.97;;;;;;;14.52;49.13;95950.59;5025432;28;20036;-81
2022/04/12 08:22:59;;;;;;;5.63;3.07;;;;;;;14.06;48.75;95949.13;5027414;28;20037;-81
2022/04/12 08:25:25;;;;;;;5.67;3.00;;;;;;;14.57;49.32;95932.31;5019566;28;20052;-81
2022/04/12 08:27:51;;;;;;;8.60;3.83;;;;;;;14.68;48.67;95934.44;5034545;28;20032;-81
2022/04/12 08:30:17;;;;;;;6.47;3.60;;;;;;;15.79;46.14;95927.34;5033757;28;20040;-82
2022/04/12 08:32:46;;;;;;;7.50;3.40;;;;;;;15.49;46.53;95940.06;5034173;28;20044;-81
2022/04/12 08:35:13;;;;;;;5.63;2.93;;;;;;;15.37;45.90;95935.50;5015586;28;20035;-81
2022/04/12 08:37:38;;;;;;;6.23;3.27;;;;;;;15.86;45.56;95937.13;5015601;28;20033;-81
2022/04/12 08:40:05;;;;;;;6.13;2.80;;;;;;;15.98;44.58;95941.66;5014742;28;20067;-81
2022/04/12 08:42:31;;;;;;;6.60;3.00;;;;;;;16.24;43.36;95943.56;5028081;28;20122;-81
2022/04/12 08:44:58;;;;;;;5.37;2.87;;;;;;;16.07;44.18;95949.47;5022141;28;20078;-82
2022/04/12 08:47:24;;;;;;;5.53;2.87;;;;;;;15.93;44.10;95959.22;5018137;28;20068;-81
2022/04/12 08:49:50;;;;;;;6.33;2.90;;;;;;;15.82;44.26;95949.97;4999728;28;20037;-81
2022/04/12 08:52:16;;;;;;;6.20;2.83;;;;;;;16.64;43.30;95958.72;5012325;28;20383;-82
2022/04/12 08:54:43;;;;;;;4.77;2.77;;;;;;;17.53;41.04;95941.44;5036253;28;20124;-82
2022/04/12 08:57:11;;;;;;;6.75;3.05;;;;;;;18.17;40.38;95956.53;5018973;28;20044;-83
2022/04/12 08:59:38;;;;;;;5.60;3.08;;;;;;;17.35;41.18;95961.53;5015781;28;20045;-82
2022/04/12 09:02:08;;;;;;;5.38;2.70;;;;;;;17.72;39.94;95958.38;5014128;28;20056;-81
2022/04/12 09:04:34;;;;;;;6.50;2.85;;;;;;;17.59;40.70;95962.69;5028219;28;20062;-82
2022/04/12 09:07:01;;;;;;;7.00;3.03;;;;;;;17.78;39.94;95949.56;4996172;28;20037;-82
2022/04/12 09:09:30;;;;;;;5.25;2.50;;;;;;;16.48;43.32;95966.06;5016825;28;21242;-81
2022/04/12 09:12:14;;;;;;;6.95;2.67;;;;;;;17.23;41.62;95949.91;5020169;28;20103;-81
2022/04/12 09:14:43;;;;;;;4.70;2.00;;;;;;;16.83;42.24;95957.09;5020874;28;20406;-81
2022/04/12 09:17:11;;;;;;;6.25;2.53;;;;;;;17.26;41.71;95956.66;5008400;28;20036;-82
2022/04/12 09:19:47;;;;;;;3.95;2.15;;;;;;;17.56;41.68;95952.47;5016945;28;20447;-81
2022/04/12 09:22:21;;;;;;;6.72;2.53;;;;;;;17.10;41.63;95953.41;5001752;28;20098;-82
2022/04/12 09:24:49;;;;;;;5.68;2.47;;;;;;;17.22;41.89;95947.47;5031741;28;20094;-81
2022/04/12 09:27:17;;;;;;;4.40;2.25;;;;;;;16.80;41.88;95949.53;5021033;28;20028;-81
2022/04/12 09:29:45;;;;;;;5.32;2.17;;;;;;;17.12;41.11;95951.34;5013094;28;20041;-81
2022/04/12 09:32:14;;;;;;;5.60;2.35;;;;;;;17.59;41.00;95937.94;5030646;28;20041;-82
2022/04/12 09:34:44;;;;;;;5.25;2.50;;;;;;;18.06;39.96;95939.41;4997731;28;20040;-83
2022/04/12 09:37:24;;;;;;;6.13;2.03;;;;;;;17.52;40.30;95939.81;5012786;28;20036;-81
2022/04/12 09:39:59;;;;;;;7.18;3.15;;;;;;;17.51;40.21;95933.69;5003366;28;20192;-82
2022/04/12 09:42:55;;;;;;;6.43;2.88;;;;;;;18.47;39.09;95929.31;5013435;28;20038;-85
2022/04/12 09:45:30;;;;;;;3.05;1.70;;;;;;;18.68;39.07;95928.97;5001713;28;20032;-81
2022/04/12 09:48:03;;;;;;;4.70;1.80;;;;;;;19.89;36.82;95926.72;4999555;28;20033;-81
2022/04/12 09:50:31;;;;;;;3.55;2.00;;;;;;;19.31;35.99;95926.13;5001841;28;20048;-81
2022/04/12 09:52:58;;;;;;;3.92;1.95;;;;;;;18.69;36.38;95935.09;5019597;28;20045;-80
2022/04/12 09:55:42;;;;;;;4.38;1.90;;;;;;;18.50;38.07;95929.69;5019272;28;20461;-81
2022/04/12 09:58:17;;;;;;;3.92;1.90;;;;;;;19.34;36.51;95910.72;5032723;28;20096;-80
2022/04/12 10:00:47;;;;;;;2.80;1.52;;;;;;;19.10;37.64;95915.06;5016458;28;20036;-81
2022/04/12 10:03:17;;;;;;;5.53;2.08;;;;;;;19.46;35.57;95912.44;5014176;28;20612;-81
2022/04/12 10:05:44;;;;;;;6.38;1.98;;;;;;;19.52;35.02;95916.06;5031188;28;20055;-81
2022/04/12 10:08:11;;;;;;;3.35;1.52;;;;;;;19.14;36.00;95909.06;5014256;28;20033;-81
2022/04/12 10:10:41;;;;;;;3.25;1.48;;;;;;;19.62;36.01;95918.22;5031108;28;20021;-80
2022/04/12 10:13:09;;;;;;;4.30;1.42;;;;;;;19.78;35.14;95909.59;5014856;28;20089;-79
2022/04/12 10:15:36;;;;;;;3.38;1.50;;;;;;;18.89;36.34;95914.44;5000070;28;20041;-80
2022/04/12 10:18:03;;;;;;;3.30;1.55;;;;;;;18.37;36.57;95914.63;5003882;28;20029;-80
2022/04/12 10:20:29;;;;;;;3.95;1.58;;;;;;;19.06;36.74;95909.38;5001696;28;20098;-81
2022/04/12 10:22:58;;;;;;;3.90;1.65;;;;;;;18.53;36.66;95910.63;5031944;28;20032;-80
2022/04/12 10:25:24;;;;;;;5.38;1.55;;;;;;;19.07;37.20;95909.13;5013422;28;20678;-80
2022/04/12 10:27:55;;;;;;;3.53;1.42;;;;;;;19.54;35.64;95905.97;5014543;28;20028;-80
2022/04/12 10:30:26;;;;;;;5.75;1.98;;;;;;;20.31;33.53;95900.88;5008064;28;20029;-80
2022/04/12 10:33:06;;;;;;;3.45;1.90;;;;;;;21.00;34.00;95897.75;5001899;28;20040;-81
2022/04/12 10:35:44;;;;;;;2.97;1.50;;;;;;;20.99;33.35;95898.75;5033482;28;20036;-82
2022/04/12 10:38:18;;;;;;;4.35;1.55;;;;;;;20.59;33.63;95902.94;5016774;28;20033;-81
2022/04/12 10:40:48;;;;;;;3.55;1.30;;;;;;;21.12;33.85;95895.84;5008194;28;20040;-80
2022/04/12 10:43:22;;;;;;;3.53;1.35;;;;;;;21.04;33.56;95896.22;5000313;28;20031;-81
2022/04/12 10:45:50;;;;;;;3.17;1.45;;;;;;;21.35;32.42;95895.84;5026365;28;20032;-80
2022/04/12 10:48:21;;;;;;;3.30;1.45;;;;;;;20.87;32.31;95904.94;5024072;28;20546;-80
2022/04/12 10:50:50;;;;;;;3.13;1.40;;;;;;;20.66;33.03;95898.31;5022279;28;20502;-80
2022/04/12 10:53:36;;;;;;;5.32;1.35;;;;;;;21.00;32.91;95895.88;5013259;28;20021;-81
2022/04/12 10:56:10;;;;;;;3.05;1.10;;;;;;;22.13;30.93;95881.06;5028364;28;20623;-80
2022/04/12 10:58:36;;;;;;;4.90;1.60;;;;;;;22.38;32.08;95885.28;5043090;28;20032;-81
2022/04/12 11:01:04;;;;;;;3.05;1.50;;;;;;;21.53;32.15;95881.53;5012905;28;20446;-81
2022/04/12 11:03:42;;;;;;;4.82;1.40;;;;;;;23.19;30.09;95877.69;5046703;28;20032;-81
2022/04/12 11:06:12;;;;;;;4.13;1.38;;;;;;;23.14;30.47;95874.97;5013751;28;20495;-81
2022/04/12 11:08:43;;;;;;;2.80;1.20;;;;;;;21.11;31.51;95888.88;5019110;28;20079;-80
2022/04/12 11:11:10;;;;;;;3.33;1.17;;;;;;;21.22;32.12;95880.03;5001564;28;20025;-81
2022/04/12 11:13:37;;;;;;;4.47;1.35;;;;;;;20.91;31.65;95889.25;5019869;28;20340;-81
2022/04/12 11:16:11;;;;;;;3.05;1.40;;;;;;;21.94;30.37;95879.66;5032301;28;20024;-82
2022/04/12 11:18:53;;;;;;;2.35;1.02;;;;;;;21.89;30.92;95885.69;5018275;28;20515;-81
2022/04/12 11:21:21;;;;;;;5.80;1.33;;;;;;;22.48;29.05;95874.72;5020705;28;20411;-81
2022/04/12 11:23:56;;;;;;;2.08;1.17;;;;;;;22.90;28.37;95873.47;5017868;28;20466;-80
2022/04/12 11:26:36;;;;;;;1.70;1.10;;;;;;;21.91;29.75;95879.31;5021800;28;20039;-80
2022/04/12 11:29:16;;;;;;;4.05;1.23;;;;;;;22.22;29.29;95872.66;5013342;28;20052;-81
2022/04/12 11:31:48;;;;;;;2.47;0.93;;;;;;;23.29;28.15;95866.28;5033567;28;20425;-81
2022/04/12 11:34:14;;;;;;;4.70;1.35;;;;;;;22.63;28.43;95868.78;5049258;28;20037;-81
2022/04/12 11:36:45;;;;;;;4.25;1.33;;;;;;;22.25;28.88;95864.97;5017895;28;20674;-81
2022/04/12 11:39:17;;;;;;;3.00;1.23;;;;;;;22.31;28.40;95872.03;5038036;28;20045;-82